Time;durP1;ratioP1;P1;durP2;ratioP2;P2;SDS_P1;SDS_P2;PMS_P1;PMS_P2;Temp;Humidity;BMP_temperature;BMP_pressure;BME280_temperature;BME280_humidity;BME280_pressure;Samples;Min_cycle;Max_cycle;Signal;HPM_P1;HPM_P2
2023/10/05 00:02:23;;;;;;;3.10;1.20;;;;;;;23.17;58.06;101832.44;5025930;28;20056;-85
2023/10/05 00:04:52;;;;;;;1.63;0.73;;;;;;;23.19;57.74;101841.25;5026379;28;20076;-80
2023/10/05 00:07:26;;;;;;;3.42;0.95;;;;;;;23.15;58.25;101845.66;5027011;28;20057;-84
2023/10/05 00:09:56;;;;;;;2.58;1.08;;;;;;;23.10;57.71;101839.53;5020208;28;20074;-83
2023/10/05 00:12:25;;;;;;;2.22;0.90;;;;;;;23.06;59.12;101834.25;5021885;28;20041;-81
2023/10/05 00:15:09;;;;;;;2.20;1.23;;;;;;;23.00;59.65;101838.69;5026340;28;20068;-82
2023/10/05 00:17:38;;;;;;;2.38;1.10;;;;;;;22.96;58.81;101838.69;5020224;28;20045;-82
2023/10/05 00:20:10;;;;;;;2.42;1.08;;;;;;;22.91;58.85;101837.84;5024311;28;20504;-81
2023/10/05 00:22:43;;;;;;;2.60;1.00;;;;;;;22.83;59.64;101836.97;5026720;28;20144;-83
2023/10/05 00:25:14;;;;;;;2.25;1.10;;;;;;;22.75;60.35;101835.25;5023294;28;20049;-86
2023/10/05 00:27:44;;;;;;;2.78;1.00;;;;;;;22.67;61.01;101839.66;5028888;28;20054;-82
2023/10/05 00:30:16;;;;;;;2.30;1.10;;;;;;;22.61;61.27;101825.63;5033593;28;20049;-85
2023/10/05 00:32:52;;;;;;;2.35;1.00;;;;;;;22.54;63.92;101830.94;5025295;28;20046;-84
2023/10/05 00:35:24;;;;;;;3.05;1.23;;;;;;;22.45;63.64;101830.97;5027599;28;20072;-83
2023/10/05 00:38:08;;;;;;;3.33;0.90;;;;;;;22.36;62.74;101829.22;5024533;28;20065;-84
2023/10/05 00:40:36;;;;;;;;;;;;;;;22.29;63.69;101823.97;5026326;28;20042;-84
2023/10/05 00:43:07;;;;;;;2.40;1.30;;;;;;;22.21;62.86;101823.97;5028797;28;19925;-86
2023/10/05 00:45:38;;;;;;;2.63;1.23;;;;;;;22.16;63.00;101820.44;5028603;28;20501;-85
2023/10/05 00:48:13;;;;;;;2.20;0.90;;;;;;;22.10;63.25;101821.31;5021567;28;20050;-83
2023/10/05 00:50:46;;;;;;;3.60;1.08;;;;;;;22.03;64.95;101819.56;5024070;28;20052;-85
2023/10/05 00:53:17;;;;;;;4.57;1.23;;;;;;;21.97;66.08;101819.59;5023480;28;20076;-83
2023/10/05 00:55:51;;;;;;;2.05;1.10;;;;;;;21.90;65.78;101813.44;5027563;28;20123;-84
2023/10/05 00:58:21;;;;;;;3.13;1.08;;;;;;;21.85;66.90;101804.66;5024820;28;20071;-86
2023/10/05 01:00:52;;;;;;;4.25;1.27;;;;;;;21.78;68.26;101807.28;5028417;28;20812;-88
2023/10/05 01:03:33;;;;;;;3.55;1.48;;;;;;;21.69;69.13;101797.63;5025076;28;20080;-82
2023/10/05 01:06:11;;;;;;;2.25;1.30;;;;;;;21.61;68.42;101805.53;5027089;28;20130;-85
2023/10/05 01:08:59;;;;;;;2.05;1.10;;;;;;;21.55;70.79;101800.25;5031526;28;20049;-83
2023/10/05 01:11:37;;;;;;;6.57;1.90;;;;;;;21.47;70.71;101796.75;5027982;28;20692;-84
2023/10/05 01:14:06;;;;;;;6.38;3.95;;;;;;;21.39;71.68;101799.31;5027207;28;20053;-82
2023/10/05 01:16:35;;;;;;;5.55;2.95;;;;;;;21.32;71.98;101801.06;5028940;28;20106;-81
2023/10/05 01:19:07;;;;;;;6.47;4.38;;;;;;;21.26;72.65;101798.44;5020430;28;20108;-83
2023/10/05 01:21:36;;;;;;;;;;;;;;;21.19;73.91;101798.41;5020297;28;20042;-83
2023/10/05 01:24:06;;;;;;;5.60;2.45;;;;;;;21.10;74.59;101802.78;5017467;28;19920;-84
2023/10/05 01:26:37;;;;;;;4.40;1.88;;;;;;;21.06;74.72;101798.38;5030883;28;20087;-86
2023/10/05 01:29:06;;;;;;;2.80;1.30;;;;;;;21.02;73.69;101799.25;5031001;28;20044;-86
2023/10/05 01:31:34;;;;;;;2.15;1.33;;;;;;;20.97;74.53;101800.13;5028124;28;20034;-87
2023/10/05 01:34:03;;;;;;;2.70;1.23;;;;;;;20.88;74.91;101795.69;5029294;28;20081;-87
2023/10/05 01:36:31;;;;;;;3.50;1.00;;;;;;;20.78;75.41;101804.44;5026671;28;20141;-88
2023/10/05 01:39:08;;;;;;;3.80;0.95;;;;;;;20.70;76.63;101783.34;5022785;28;20132;-87
2023/10/05 01:41:38;;;;;;;2.42;1.08;;;;;;;20.62;75.23;101788.59;5026870;28;20547;-88
2023/10/05 01:44:08;;;;;;;2.40;1.20;;;;;;;20.58;75.26;101793.81;5029527;28;20057;-84
2023/10/05 01:46:38;;;;;;;1.67;0.90;;;;;;;20.51;76.03;101795.50;5022523;28;20045;-82
2023/10/05 01:49:07;;;;;;;3.17;0.98;;;;;;;20.44;76.63;101791.09;5025625;28;20073;-81
2023/10/05 01:51:36;;;;;;;2.53;1.25;;;;;;;20.36;76.84;101791.03;5018994;28;20110;-83
2023/10/05 01:54:11;;;;;;;1.35;0.90;;;;;;;20.28;77.18;101793.63;5024452;28;20603;-81
2023/10/05 01:56:44;;;;;;;2.78;0.90;;;;;;;20.20;77.55;101804.97;5030229;28;20538;-81
2023/10/05 01:59:13;;;;;;;1.40;0.75;;;;;;;20.12;77.85;101797.03;5023203;28;20075;-79
2023/10/05 02:01:41;;;;;;;2.28;0.93;;;;;;;20.06;78.41;101810.13;5027518;28;20143;-83
2023/10/05 02:04:10;;;;;;;2.53;0.70;;;;;;;19.99;79.15;101809.19;5024501;28;20056;-82
2023/10/05 02:06:45;;;;;;;2.88;0.88;;;;;;;19.91;79.37;101810.03;5034199;28;20054;-83
2023/10/05 02:09:14;;;;;;;1.58;0.88;;;;;;;19.82;80.20;101814.31;5036767;28;20046;-83
2023/10/05 02:11:44;;;;;;;1.38;0.70;;;;;;;19.74;80.80;101821.25;5030362;28;20045;-82
2023/10/05 02:14:16;;;;;;;3.70;1.10;;;;;;;19.65;81.55;101821.13;5020955;28;20060;-84
2023/10/05 02:16:48;;;;;;;2.40;1.20;;;;;;;19.58;81.90;101824.56;5024910;28;20076;-82
2023/10/05 02:19:17;;;;;;;2.25;1.00;;;;;;;19.51;82.21;101823.63;5030004;28;20050;-87
2023/10/05 02:21:46;;;;;;;2.28;1.33;;;;;;;19.39;82.35;101819.16;5030378;28;20065;-86
2023/10/05 02:24:22;;;;;;;1.23;0.80;;;;;;;19.35;82.70;101819.97;5025740;28;20054;-83
2023/10/05 02:30:08;;;;;;;5.78;1.30;;;;;;;19.21;83.72;101821.56;4732434;27;9330451;-85
2023/10/05 02:32:39;;;;;;;3.55;1.30;;;;;;;19.11;84.17;101824.97;5048429;28;20893;-81
2023/10/05 02:35:18;;;;;;;2.22;1.05;;;;;;;19.03;84.80;101828.41;5042566;28;20053;-86
2023/10/05 02:37:52;;;;;;;3.65;1.13;;;;;;;18.95;85.90;101832.66;5046762;28;20103;-87
2023/10/05 02:40:25;;;;;;;1.35;1.00;;;;;;;18.86;86.56;101835.16;5041930;28;20044;-89
2023/10/05 02:42:56;;;;;;;4.70;1.23;;;;;;;18.75;87.56;101829.75;5046031;28;20049;-87
2023/10/05 02:45:26;;;;;;;2.47;1.00;;;;;;;18.63;88.34;101830.47;5043439;28;20049;-85
2023/10/05 02:47:57;;;;;;;2.97;1.02;;;;;;;18.56;89.58;101833.00;5039598;28;20490;-84
2023/10/05 02:50:27;;;;;;;1.83;1.20;;;;;;;18.50;89.54;101825.91;5043598;28;20041;-84
2023/10/05 02:52:56;;;;;;;5.20;1.20;;;;;;;18.46;89.75;101834.59;5038695;28;20119;-83
2023/10/05 02:55:32;;;;;;;4.72;1.35;;;;;;;18.39;90.26;101832.75;5043805;28;20147;-84
2023/10/05 02:58:00;;;;;;;2.72;1.40;;;;;;;18.35;90.58;101833.59;5037584;28;20056;-83
2023/10/05 03:00:33;;;;;;;2.17;1.35;;;;;;;18.30;90.80;101825.66;5037979;28;20049;-86
2023/10/05 03:03:03;;;;;;;3.70;1.23;;;;;;;18.33;90.69;101835.28;5042712;28;20475;-87
2023/10/05 03:05:35;;;;;;;1.38;0.80;;;;;;;18.33;91.34;101840.53;5045735;28;20044;-83
2023/10/05 03:08:04;;;;;;;7.15;1.23;;;;;;;18.27;91.67;101843.06;5044972;28;20053;-85
2023/10/05 03:10:32;;;;;;;1.13;0.80;;;;;;;18.24;91.21;101843.00;5045701;28;20049;-85
2023/10/05 03:13:01;;;;;;;2.63;1.30;;;;;;;18.20;91.18;101831.59;5047554;28;20479;-88
2023/10/05 03:15:34;;;;;;;1.63;1.25;;;;;;;18.18;91.33;101831.56;5047471;28;20689;-86
2023/10/05 03:18:06;;;;;;;2.88;0.90;;;;;;;18.12;91.06;101831.50;5032491;28;20053;-86
2023/10/05 03:20:34;;;;;;;4.72;0.82;;;;;;;18.05;91.73;101829.63;5040953;28;20053;-86
2023/10/05 03:23:03;;;;;;;2.08;1.15;;;;;;;18.01;92.45;101822.56;5039701;28;20075;-86
2023/10/05 03:25:33;;;;;;;2.13;1.05;;;;;;;17.94;93.10;101820.72;5046675;28;20390;-87
2023/10/05 03:28:04;;;;;;;11.27;1.00;;;;;;;17.89;96.59;101814.50;5041726;28;20418;-85
2023/10/05 03:30:35;;;;;;;1.58;0.90;;;;;;;17.80;98.03;101821.34;5040171;28;20133;-84
2023/10/05 03:33:05;;;;;;;5.75;0.90;;;;;;;17.75;98.46;101828.25;5031729;28;20072;-86
2023/10/05 03:35:34;;;;;;;2.92;0.98;;;;;;;17.72;97.94;101827.28;5050855;28;20948;-87
2023/10/05 03:38:08;;;;;;;3.85;1.10;;;;;;;17.67;97.95;101826.34;5047102;28;20067;-85
2023/10/05 03:40:36;;;;;;;3.97;1.33;;;;;;;17.64;97.43;101821.94;5018899;28;20054;-85
2023/10/05 03:43:05;;;;;;;3.22;1.35;;;;;;;17.61;97.06;101821.84;5021009;28;20073;-84
2023/10/05 03:45:35;;;;;;;7.05;1.13;;;;;;;17.58;97.92;101827.94;5031452;28;20055;-86
2023/10/05 03:48:06;;;;;;;;;;;;;;;17.53;96.79;101831.34;5019461;28;20052;-86
2023/10/05 03:50:34;;;;;;;0.98;0.73;;;;;;;17.47;97.37;101829.47;5023452;28;19971;-86
2023/10/05 03:53:06;;;;;;;3.83;1.00;;;;;;;17.43;97.29;101826.78;5021613;28;20053;-87
2023/10/05 03:55:35;;;;;;;2.92;1.13;;;;;;;17.38;98.07;101829.31;5024192;28;20049;-87
2023/10/05 03:58:05;;;;;;;2.20;1.10;;;;;;;17.29;98.13;101824.78;5025477;28;20515;-85
2023/10/05 04:00:36;;;;;;;3.33;1.05;;;;;;;17.32;99.04;101840.53;5027973;28;20049;-85
2023/10/05 04:03:09;;;;;;;5.05;1.40;;;;;;;17.30;98.56;101838.75;5025787;28;20066;-86
2023/10/05 04:05:39;;;;;;;1.75;0.85;;;;;;;17.28;98.55;101843.94;5026145;28;20092;-86
2023/10/05 04:08:12;;;;;;;4.60;1.40;;;;;;;17.25;98.63;101837.75;5033046;28;20049;-86
2023/10/05 04:10:47;;;;;;;2.85;1.20;;;;;;;17.20;98.16;101834.19;5032039;28;20081;-86
2023/10/05 04:13:20;;;;;;;2.78;1.65;;;;;;;17.14;98.42;101834.97;5031097;28;20049;-87
2023/10/05 04:15:53;;;;;;;1.83;0.80;;;;;;;17.04;98.70;101833.00;5028020;28;20051;-86
2023/10/05 04:18:23;;;;;;;5.47;1.52;;;;;;;17.00;99.40;101831.19;5031188;28;20107;-86
2023/10/05 04:20:53;;;;;;;2.00;1.35;;;;;;;16.98;99.83;101827.66;5028609;28;20138;-85
2023/10/05 04:23:25;;;;;;;3.05;1.35;;;;;;;16.98;99.21;101835.50;5015641;28;20112;-88
2023/10/05 04:25:56;;;;;;;3.80;1.42;;;;;;;16.91;99.47;101831.88;5021133;28;20057;-86
2023/10/05 04:28:32;;;;;;;3.33;1.33;;;;;;;16.89;99.49;101842.28;5019204;28;20054;-84
2023/10/05 04:31:06;;;;;;;2.35;1.00;;;;;;;16.83;99.78;101836.94;5006508;28;20046;-84
2023/10/05 04:33:43;;;;;;;4.28;0.93;;;;;;;16.77;100.00;101844.63;5003214;28;20503;-84
2023/10/05 04:36:11;;;;;;;1.88;1.30;;;;;;;16.69;100.00;101843.56;5002999;28;20113;-83
2023/10/05 04:38:40;;;;;;;2.88;1.20;;;;;;;16.60;100.00;101833.78;5002036;28;20050;-84
2023/10/05 04:41:12;;;;;;;2.60;1.20;;;;;;;16.54;100.00;101847.63;5007607;28;20523;-85
2023/10/05 04:43:41;;;;;;;5.72;1.08;;;;;;;16.42;100.00;101852.53;4999727;28;20101;-84
2023/10/05 04:46:11;;;;;;;3.45;1.25;;;;;;;16.38;100.00;101844.59;5002089;28;20539;-86
2023/10/05 04:48:39;;;;;;;1.50;1.15;;;;;;;16.37;100.00;101843.72;5009735;28;20049;-85
2023/10/05 04:51:12;;;;;;;2.58;1.10;;;;;;;16.32;100.00;101848.84;5020637;28;20113;-85
2023/10/05 04:53:42;;;;;;;4.53;1.45;;;;;;;16.30;100.00;101844.44;5009348;28;20051;-82
2023/10/05 04:56:22;;;;;;;2.80;1.55;;;;;;;16.31;100.00;101849.72;5007261;28;20053;-82
2023/10/05 04:59:22;;;;;;;3.75;1.27;;;;;;;16.33;100.00;101848.00;4999847;28;20057;-82
2023/10/05 05:02:00;;;;;;;2.50;1.08;;;;;;;16.34;100.00;101848.88;5006115;28;20141;-82
2023/10/05 05:04:41;;;;;;;3.63;1.25;;;;;;;16.35;100.00;101855.88;5011149;28;20060;-83
2023/10/05 05:07:12;;;;;;;2.13;1.08;;;;;;;16.33;100.00;101854.94;5018810;28;20470;-83
2023/10/05 05:09:42;;;;;;;5.53;1.50;;;;;;;16.34;100.00;101856.72;5001854;28;20140;-83
2023/10/05 05:12:16;;;;;;;3.10;1.30;;;;;;;16.32;100.00;101861.03;5003223;28;20147;-83
2023/10/05 05:14:46;;;;;;;4.47;1.35;;;;;;;16.27;100.00;101858.31;5007647;28;20049;-83
2023/10/05 05:17:22;;;;;;;3.85;0.98;;;;;;;16.24;100.00;101857.34;5007741;28;20495;-81
2023/10/05 05:19:52;;;;;;;6.25;1.52;;;;;;;16.22;100.00;101861.66;5007127;28;20049;-82
2023/10/05 05:22:20;;;;;;;2.58;1.10;;;;;;;16.21;100.00;101857.28;5004076;28;20076;-82
2023/10/05 05:24:53;;;;;;;3.70;1.20;;;;;;;16.20;100.00;101859.00;5005314;28;20065;-84
2023/10/05 05:27:22;;;;;;;4.90;1.15;;;;;;;16.20;100.00;101860.75;5009142;28;20123;-83
2023/10/05 05:29:53;;;;;;;2.35;1.48;;;;;;;16.18;100.00;101859.81;5010721;28;20116;-83
2023/10/05 05:32:23;;;;;;;6.18;1.20;;;;;;;16.11;100.00;101866.63;5007030;28;20053;-83
2023/10/05 05:34:52;;;;;;;2.95;1.25;;;;;;;16.08;100.00;101872.66;5004791;28;20081;-83
2023/10/05 05:37:28;;;;;;;2.83;1.17;;;;;;;15.98;100.00;101864.53;5009063;28;20045;-82
2023/10/05 05:39:57;;;;;;;2.17;1.20;;;;;;;15.95;100.00;101864.47;5009667;28;20053;-83
2023/10/05 05:42:30;;;;;;;2.45;1.13;;;;;;;15.88;100.00;101877.38;5004129;28;20133;-84
2023/10/05 05:44:58;;;;;;;1.70;1.00;;;;;;;15.86;100.00;101881.66;5006192;28;20237;-84
2023/10/05 05:47:31;;;;;;;3.10;1.23;;;;;;;15.81;100.00;101880.66;5003174;28;20142;-85
2023/10/05 05:50:01;;;;;;;3.35;1.42;;;;;;;15.77;100.00;101890.97;5000808;28;20100;-82
2023/10/05 05:52:29;;;;;;;2.90;1.48;;;;;;;15.78;100.00;101890.13;5002492;28;20115;-83
2023/10/05 05:55:06;;;;;;;3.78;1.30;;;;;;;15.74;100.00;101890.91;5006111;28;20046;-84
2023/10/05 05:57:34;;;;;;;2.92;1.42;;;;;;;15.68;100.00;101889.84;5007032;28;20141;-82
2023/10/05 06:00:10;;;;;;;1.90;1.23;;;;;;;15.64;100.00;101888.00;5008706;28;20129;-85
2023/10/05 06:02:43;;;;;;;2.97;1.88;;;;;;;15.64;100.00;101888.00;5003665;28;20050;-84
2023/10/05 06:05:12;;;;;;;4.18;1.65;;;;;;;15.64;100.00;101889.72;5013425;28;20050;-84
2023/10/05 06:07:41;;;;;;;2.67;1.55;;;;;;;15.60;100.00;101878.34;5007496;28;20045;-84
2023/10/05 06:10:13;;;;;;;2.38;1.40;;;;;;;15.58;100.00;101873.94;5009115;28;20137;-84
2023/10/05 06:12:50;;;;;;;2.33;1.42;;;;;;;15.55;100.00;101869.50;5005420;28;20045;-84
2023/10/05 06:15:20;;;;;;;7.00;1.98;;;;;;;15.50;100.00;101871.09;5018864;28;20045;-85
2023/10/05 06:17:50;;;;;;;3.03;1.42;;;;;;;15.48;100.00;101864.94;5004470;28;20053;-82
2023/10/05 06:20:19;;;;;;;2.28;1.58;;;;;;;15.43;100.00;101854.41;5006106;28;20084;-84
2023/10/05 06:22:50;;;;;;;4.60;1.48;;;;;;;15.40;100.00;101862.16;5002273;28;20052;-84
2023/10/05 06:25:19;;;;;;;3.30;1.42;;;;;;;15.38;100.00;101858.63;5009226;28;20046;-83
2023/10/05 06:27:48;;;;;;;6.13;1.30;;;;;;;15.32;100.00;101857.56;5006122;28;20073;-85
2023/10/05 06:30:17;;;;;;;2.70;1.30;;;;;;;15.22;100.00;101859.91;5007353;28;20058;-83
2023/10/05 06:32:45;;;;;;;2.92;1.50;;;;;;;15.14;100.00;101866.66;5003270;28;20082;-83
2023/10/05 06:35:18;;;;;;;3.50;1.40;;;;;;;15.06;100.00;101860.31;5006848;28;20046;-85
2023/10/05 06:37:48;;;;;;;2.40;1.20;;;;;;;14.99;100.00;101866.19;5004577;28;20069;-83
2023/10/05 06:40:21;;;;;;;2.53;1.48;;;;;;;14.95;100.00;101865.22;5007083;28;20049;-85
2023/10/05 06:42:52;;;;;;;;;;;;;;;14.94;100.00;101870.41;4989678;28;20050;-84
2023/10/05 06:45:23;;;;;;;8.00;2.35;;;;;;;14.94;100.00;101871.28;5002136;28;19933;-84
2023/10/05 06:47:52;;;;;;;8.60;2.53;;;;;;;14.93;100.00;101866.88;4997875;28;20057;-83
2023/10/05 06:50:22;;;;;;;4.35;1.85;;;;;;;14.91;100.00;101863.34;5027468;28;20108;-84
2023/10/05 06:52:52;;;;;;;3.47;1.60;;;;;;;14.94;100.00;101862.59;5023189;28;20717;-83
2023/10/05 06:55:21;;;;;;;9.05;2.05;;;;;;;14.96;100.00;101864.41;5024873;28;20045;-82
2023/10/05 06:57:51;;;;;;;4.88;1.75;;;;;;;14.96;100.00;101860.91;5020664;28;20049;-81
2023/10/05 07:00:21;;;;;;;7.38;1.80;;;;;;;14.94;100.00;101858.25;5024051;28;20046;-84
2023/10/05 07:02:56;;;;;;;2.08;1.40;;;;;;;14.94;100.00;101863.47;5018736;28;20061;-81
2023/10/05 07:05:28;;;;;;;4.68;1.85;;;;;;;14.93;100.00;101863.41;5022653;28;20107;-82
2023/10/05 07:07:56;;;;;;;3.30;1.40;;;;;;;14.86;100.00;101858.00;5020946;28;20049;-82
2023/10/05 07:10:25;;;;;;;2.60;1.45;;;;;;;14.83;100.00;101864.84;5016049;28;20049;-82
2023/10/05 07:13:01;;;;;;;3.15;1.52;;;;;;;14.83;100.00;101870.94;5020741;28;20052;-83
2023/10/05 07:15:29;;;;;;;5.63;1.90;;;;;;;14.83;100.00;101867.47;5025676;28;20053;-82
2023/10/05 07:17:59;;;;;;;4.45;1.55;;;;;;;14.83;100.00;101875.28;5021226;28;20099;-84
2023/10/05 07:20:36;;;;;;;4.53;1.90;;;;;;;14.82;100.00;101861.38;5027275;28;20057;-82
2023/10/05 07:23:04;;;;;;;3.40;1.70;;;;;;;14.81;100.00;101862.19;5031487;28;20157;-83
2023/10/05 07:25:33;;;;;;;5.07;1.83;;;;;;;14.81;100.00;101866.53;5022728;28;20124;-82
2023/10/05 07:28:03;;;;;;;3.53;1.25;;;;;;;14.78;100.00;101867.34;5026111;28;20150;-82
2023/10/05 07:30:32;;;;;;;4.05;1.30;;;;;;;14.77;100.00;101873.38;4998119;28;20049;-82
2023/10/05 07:33:00;;;;;;;5.65;1.58;;;;;;;14.75;100.00;101871.56;5006467;28;20050;-84
2023/10/05 07:35:31;;;;;;;3.47;1.48;;;;;;;14.75;100.00;101871.56;5008375;28;20483;-82
2023/10/05 07:37:59;;;;;;;7.88;1.50;;;;;;;14.74;100.00;101873.28;5007676;28;20072;-81
2023/10/05 07:40:29;;;;;;;2.25;1.40;;;;;;;14.75;100.00;101867.25;5006101;28;20149;-82
2023/10/05 07:42:58;;;;;;;3.15;1.27;;;;;;;14.75;100.00;101862.03;5006720;28;20042;-83
2023/10/05 07:45:29;;;;;;;2.70;1.52;;;;;;;14.74;100.00;101868.06;5015932;28;20041;-82
2023/10/05 07:47:59;;;;;;;2.13;1.13;;;;;;;14.74;100.00;101861.97;5007984;28;20061;-82
2023/10/05 07:50:28;;;;;;;5.00;1.50;;;;;;;14.73;100.00;101863.72;5004447;28;20064;-82
2023/10/05 07:52:58;;;;;;;4.80;1.17;;;;;;;14.73;100.00;101858.50;5005945;28;20054;-82
2023/10/05 07:55:26;;;;;;;3.70;1.27;;;;;;;14.73;100.00;101863.72;5005903;28;20049;-82
2023/10/05 07:57:55;;;;;;;1.90;1.10;;;;;;;14.72;100.00;101861.06;5004421;28;20054;-82
2023/10/05 08:00:23;;;;;;;3.75;1.60;;;;;;;14.70;100.00;101863.59;5009416;28;20105;-83
2023/10/05 08:02:52;;;;;;;3.88;1.55;;;;;;;14.71;100.00;101859.28;5011085;28;20142;-83
2023/10/05 08:05:20;;;;;;;2.75;1.13;;;;;;;14.70;100.00;101853.19;5007066;28;20080;-83
2023/10/05 08:07:51;;;;;;;5.32;1.30;;;;;;;14.64;100.00;101847.81;5004353;28;20049;-82
2023/10/05 08:10:23;;;;;;;1.75;1.30;;;;;;;14.66;100.00;101852.22;5013849;28;20050;-82
2023/10/05 08:12:53;;;;;;;3.72;1.08;;;;;;;14.68;100.00;101853.97;5006236;28;20050;-84
2023/10/05 08:15:21;;;;;;;3.17;1.35;;;;;;;14.68;100.00;101847.03;5002045;28;20137;-83
2023/10/05 08:17:50;;;;;;;1.42;1.00;;;;;;;14.67;100.00;101853.09;5005841;28;20060;-82
2023/10/05 08:20:21;;;;;;;3.17;1.35;;;;;;;14.71;100.00;101847.16;5005499;28;20050;-81
2023/10/05 08:22:49;;;;;;;3.47;1.92;;;;;;;14.72;100.00;101856.72;5003953;28;20108;-84
2023/10/05 08:25:22;;;;;;;1.45;1.23;;;;;;;14.70;100.00;101858.38;5007200;28;20046;-83
2023/10/05 08:27:51;;;;;;;5.93;1.67;;;;;;;14.72;100.00;101858.44;5006532;28;20508;-84
2023/10/05 08:30:24;;;;;;;3.40;1.40;;;;;;;14.70;100.00;101858.38;5006483;28;20058;-85
2023/10/05 08:32:56;;;;;;;1.27;1.05;;;;;;;14.71;100.00;101854.97;5005265;28;20053;-82
2023/10/05 08:35:26;;;;;;;3.47;1.40;;;;;;;14.74;100.00;101854.16;5029830;28;20115;-84
2023/10/05 08:37:55;;;;;;;2.08;1.30;;;;;;;14.73;100.00;101855.91;5014896;28;20053;-82
2023/10/05 08:40:41;;;;;;;3.38;1.23;;;;;;;14.74;100.00;101869.81;5025573;28;20053;-85
2023/10/05 08:43:10;;;;;;;2.00;1.13;;;;;;;14.70;100.00;101874.00;5028677;28;20138;-84
2023/10/05 08:45:47;;;;;;;2.47;1.42;;;;;;;14.68;100.00;101873.09;5025423;28;20053;-84
2023/10/05 08:48:28;;;;;;;3.35;1.40;;;;;;;14.66;100.00;101867.84;5023770;28;20050;-85
2023/10/05 08:51:04;;;;;;;3.08;1.20;;;;;;;14.65;100.00;101865.19;5017803;28;20053;-84
2023/10/05 08:53:33;;;;;;;1.52;0.95;;;;;;;14.66;100.00;101865.25;5016343;28;20038;-83
2023/10/05 08:56:03;;;;;;;1.55;1.23;;;;;;;14.67;100.00;101860.91;5032575;28;20051;-84
2023/10/05 08:58:34;;;;;;;2.90;1.10;;;;;;;14.65;100.00;101867.78;5026275;28;20041;-84
2023/10/05 09:01:03;;;;;;;3.60;1.27;;;;;;;14.64;100.00;101868.66;5026675;28;20049;-84
2023/10/05 09:03:35;;;;;;;2.28;1.50;;;;;;;14.64;100.00;101864.31;5022530;28;20110;-84
2023/10/05 09:06:16;;;;;;;3.30;1.13;;;;;;;14.64;100.00;101866.03;5025571;28;20055;-84
2023/10/05 09:09:01;;;;;;;2.92;1.10;;;;;;;14.63;100.00;101872.06;5024526;28;20514;-84
2023/10/05 09:11:32;;;;;;;2.38;1.40;;;;;;;14.59;100.00;101867.59;5025451;28;20128;-84
2023/10/05 09:14:17;;;;;;;1.75;0.95;;;;;;;14.58;100.00;101873.66;5021531;28;20049;-83
2023/10/05 09:16:47;;;;;;;3.70;1.25;;;;;;;14.60;100.00;101879.78;5021534;28;20059;-83
2023/10/05 09:19:25;;;;;;;3.00;1.65;;;;;;;14.61;100.00;101882.47;5027216;28;20507;-83
2023/10/05 09:22:10;;;;;;;3.35;1.30;;;;;;;14.61;100.00;101873.75;5016135;28;20129;-84
2023/10/05 09:24:43;;;;;;;3.90;1.25;;;;;;;14.59;100.00;101875.41;5021847;28;20053;-82
2023/10/05 09:27:16;;;;;;;;;;;;;;;14.56;100.00;101877.94;5024291;28;20129;-83
2023/10/05 09:29:45;;;;;;;2.35;1.23;;;;;;;14.52;100.00;101878.63;5012848;28;19922;-85
2023/10/05 09:32:25;;;;;;;1.48;1.20;;;;;;;14.52;100.00;101878.63;5003000;28;20046;-84
2023/10/05 09:34:56;;;;;;;3.30;1.48;;;;;;;14.54;100.00;101877.88;5010270;28;20093;-84
2023/10/05 09:37:26;;;;;;;4.35;1.38;;;;;;;14.55;100.00;101873.56;5007631;28;20042;-83
2023/10/05 09:40:01;;;;;;;4.72;1.10;;;;;;;14.56;100.00;101870.13;5002733;28;20493;-85
2023/10/05 09:42:40;;;;;;;2.25;1.30;;;;;;;14.58;100.00;101863.25;5008581;28;20121;-84
2023/10/05 09:45:12;;;;;;;6.95;1.55;;;;;;;14.60;100.00;101866.78;5003449;28;20042;-85
2023/10/05 09:47:42;;;;;;;1.52;1.15;;;;;;;14.61;100.00;101868.53;5006609;28;20058;-85
2023/10/05 09:50:15;;;;;;;2.17;1.48;;;;;;;14.63;100.00;101861.66;5008788;28;20042;-85
2023/10/05 09:52:45;;;;;;;7.28;1.30;;;;;;;14.65;100.00;101859.97;5010268;28;20132;-84
2023/10/05 09:55:17;;;;;;;2.60;1.27;;;;;;;14.66;100.00;101856.56;5009924;28;20263;-83
2023/10/05 09:57:51;;;;;;;1.83;1.23;;;;;;;14.66;100.00;101861.75;5007043;28;20124;-83
2023/10/05 10:00:30;;;;;;;4.68;1.48;;;;;;;14.65;100.00;101857.38;5004141;28;20610;-85
2023/10/05 10:03:05;;;;;;;2.47;1.30;;;;;;;14.64;100.00;101866.03;5010558;28;20048;-86
2023/10/05 10:05:48;;;;;;;2.05;1.40;;;;;;;14.63;100.00;101856.44;5002537;28;20042;-82
2023/10/05 10:08:23;;;;;;;4.70;1.50;;;;;;;14.60;100.00;101844.22;5003789;28;20050;-84
2023/10/05 10:11:03;;;;;;;5.07;1.20;;;;;;;14.57;100.00;101844.13;5008312;28;20045;-83
2023/10/05 10:13:37;;;;;;;1.90;1.05;;;;;;;14.55;100.00;101851.00;5004441;28;20455;-83
2023/10/05 10:16:21;;;;;;;1.08;0.88;;;;;;;14.58;100.00;101845.00;5008193;28;20038;-84
2023/10/05 10:18:49;;;;;;;3.75;1.30;;;;;;;14.61;100.00;101840.78;5004408;28;20969;-83
2023/10/05 10:21:24;;;;;;;5.13;1.25;;;;;;;14.63;100.00;101836.47;5001569;28;20499;-85
2023/10/05 10:24:03;;;;;;;2.17;1.35;;;;;;;14.66;100.00;101833.97;5006809;28;20579;-85
2023/10/05 10:26:33;;;;;;;3.40;2.05;;;;;;;14.71;100.00;101838.44;5003137;28;20053;-85
2023/10/05 10:29:05;;;;;;;3.33;1.40;;;;;;;14.73;100.00;101836.75;5006499;28;20065;-85
2023/10/05 10:31:42;;;;;;;2.08;1.15;;;;;;;14.73;100.00;101832.44;5005935;28;20592;-85
2023/10/05 10:34:19;;;;;;;2.53;1.25;;;;;;;14.73;100.00;101832.44;5005755;28;20061;-85
2023/10/05 10:36:56;;;;;;;7.30;1.50;;;;;;;14.74;100.00;101829.00;5001853;28;20050;-85
2023/10/05 10:39:27;;;;;;;2.05;1.30;;;;;;;14.76;100.00;101827.31;5008479;28;20045;-86
2023/10/05 10:42:03;;;;;;;1.75;1.23;;;;;;;14.77;100.00;101826.47;5001766;28;20172;-85
2023/10/05 10:44:51;;;;;;;1.63;1.10;;;;;;;14.79;100.00;101819.56;5005024;28;20111;-85
2023/10/05 10:47:22;;;;;;;4.40;1.90;;;;;;;14.78;100.00;101820.44;5003767;28;20104;-85
2023/10/05 10:50:11;;;;;;;3.05;1.17;;;;;;;14.80;100.00;101813.53;5007277;28;20050;-86
2023/10/05 10:52:43;;;;;;;5.50;1.38;;;;;;;14.78;100.00;101820.44;5029666;28;20049;-86
2023/10/05 10:55:14;;;;;;;1.42;1.20;;;;;;;14.81;100.00;101823.13;5028512;28;20137;-83
2023/10/05 10:57:44;;;;;;;2.38;1.02;;;;;;;14.81;100.00;101825.72;5030142;28;20081;-84
2023/10/05 11:03:12;;;;;;;2.28;1.58;;;;;;;14.86;100.00;101818.91;5012787;28;20148;-85
2023/10/05 11:05:47;;;;;;;1.88;1.05;;;;;;;14.88;100.00;101811.16;5023315;28;20053;-85
2023/10/05 11:08:20;;;;;;;1.45;1.08;;;;;;;14.86;100.00;101813.69;5030672;28;20049;-85
2023/10/05 11:10:59;;;;;;;;;;;;;;;14.87;100.00;101814.63;5024496;28;20058;-86
2023/10/05 11:13:27;;;;;;;4.78;1.20;;;;;;;14.86;100.00;101813.69;5025827;28;19933;-85
2023/10/05 11:15:59;;;;;;;2.30;1.33;;;;;;;14.83;100.00;101808.41;5027855;28;20050;-86
2023/10/05 11:18:31;;;;;;;7.32;1.30;;;;;;;14.78;100.00;101810.00;5028254;28;20068;-85
2023/10/05 11:21:08;;;;;;;4.95;1.50;;;;;;;14.76;100.00;101800.38;5027505;28;20160;-84
2023/10/05 11:23:47;;;;;;;2.53;1.48;;;;;;;14.73;100.00;101801.19;5029549;28;20053;-83
2023/10/05 11:26:26;;;;;;;2.45;1.40;;;;;;;14.70;100.00;101795.88;5028655;28;20132;-85
2023/10/05 11:28:56;;;;;;;4.15;1.30;;;;;;;14.63;100.00;101794.78;5030675;28;20117;-87
2023/10/05 11:31:29;;;;;;;1.23;0.93;;;;;;;14.60;100.00;101796.44;5027472;28;20063;-86
2023/10/05 11:34:00;;;;;;;2.90;1.15;;;;;;;14.58;100.00;101790.31;5023223;28;20108;-84
2023/10/05 11:36:33;;;;;;;3.63;1.25;;;;;;;14.58;100.00;101795.50;5029442;28;20101;-85
2023/10/05 11:39:03;;;;;;;2.55;1.40;;;;;;;14.56;100.00;101786.78;5022781;28;20052;-84
2023/10/05 11:41:33;;;;;;;3.22;1.25;;;;;;;14.54;100.00;101789.31;5023216;28;20083;-83
2023/10/05 11:44:03;;;;;;;3.25;1.13;;;;;;;14.53;100.00;101791.88;5029248;28;20042;-84
2023/10/05 11:46:46;;;;;;;3.67;1.10;;;;;;;14.50;100.00;101783.94;5024894;28;20484;-83
2023/10/05 11:49:15;;;;;;;2.25;1.33;;;;;;;14.45;100.00;101789.91;5026897;28;20073;-83
2023/10/05 11:51:48;;;;;;;2.05;1.10;;;;;;;14.42;100.00;101786.31;5026904;28;20053;-86